createdAt,value
2023-04-14T00:00:45.027Z,6.07
2023-04-14T00:03:12.800Z,4.63
2023-04-14T00:05:40.654Z,4.70
2023-04-14T00:08:08.188Z,5.17
2023-04-14T00:10:35.739Z,4.40
2023-04-14T00:13:03.241Z,3.87
2023-04-14T00:15:30.935Z,4.70
2023-04-14T00:17:58.514Z,6.30
2023-04-14T00:20:26.057Z,4.70
2023-04-14T00:22:53.522Z,4.40
2023-04-14T00:25:21.006Z,4.07
2023-04-14T00:27:48.530Z,4.20
2023-04-14T00:30:16.083Z,5.17
2023-04-14T00:32:43.660Z,4.80
2023-04-14T00:35:11.188Z,5.60
2023-04-14T00:37:38.754Z,6.27
2023-04-14T00:40:10.060Z,4.63
2023-04-14T00:42:47.980Z,5.83
2023-04-14T00:45:15.690Z,5.00
2023-04-14T00:47:47.503Z,5.07
2023-04-14T00:50:16.521Z,4.67
2023-04-14T00:52:45.959Z,6.07
2023-04-14T00:55:18.551Z,6.30
2023-04-14T00:57:47.007Z,6.30
2023-04-14T01:00:15.884Z,6.70
2023-04-14T01:02:43.687Z,8.00
2023-04-14T01:05:11.961Z,9.80
2023-04-14T01:07:39.846Z,8.17
2023-04-14T01:10:08.266Z,7.10
2023-04-14T01:13:06.035Z,7.53
2023-04-14T01:15:52.968Z,8.50
2023-04-14T01:18:41.370Z,8.07
2023-04-14T01:21:20.616Z,8.00
2023-04-14T01:24:26.860Z,8.67
2023-04-14T01:27:24.112Z,8.50
2023-04-14T01:30:20.054Z,9.10
2023-04-14T01:32:50.191Z,10.07
2023-04-14T01:35:49.945Z,8.67
2023-04-14T01:38:26.220Z,9.60
2023-04-14T01:40:59.289Z,10.83
2023-04-14T01:43:29.565Z,9.80
2023-04-14T01:46:07.864Z,9.37
2023-04-14T01:48:36.513Z,9.37
2023-04-14T01:51:06.548Z,9.00
2023-04-14T01:53:38.808Z,10.40
2023-04-14T01:56:10.364Z,9.77
2023-04-14T01:58:39.282Z,11.37
2023-04-14T02:01:08.111Z,12.00
2023-04-14T02:03:37.614Z,12.37
2023-04-14T02:06:06.608Z,11.13
2023-04-14T02:08:37.757Z,13.33
2023-04-14T02:11:06.605Z,11.73
2023-04-14T02:13:36.017Z,12.07
2023-04-14T02:16:05.373Z,12.97
2023-04-14T02:18:33.622Z,11.73
2023-04-14T02:21:04.132Z,13.40
2023-04-14T02:23:33.275Z,16.23
2023-04-14T02:26:16.393Z,13.87
2023-04-14T02:28:59.951Z,16.20
2023-04-14T02:31:30.602Z,15.97
2023-04-14T02:34:01.205Z,16.10
2023-04-14T02:36:35.248Z,14.67
2023-04-14T02:39:12.297Z,17.70
2023-04-14T02:41:42.570Z,16.73
2023-04-14T02:44:29.728Z,18.83
2023-04-14T02:47:10.697Z,20.00
2023-04-14T02:49:43.364Z,23.43
2023-04-14T02:52:14.353Z,20.70
2023-04-14T02:54:44.114Z,23.83
2023-04-14T02:57:12.249Z,18.67
2023-04-14T02:59:42.579Z,17.93
2023-04-14T03:02:12.810Z,17.43
2023-04-14T03:04:42.011Z,17.30
2023-04-14T03:07:12.329Z,17.20
2023-04-14T03:09:40.921Z,19.23
2023-04-14T03:12:08.656Z,22.60
2023-04-14T03:14:38.023Z,19.43
2023-04-14T03:17:07.074Z,20.57
2023-04-14T03:19:36.743Z,17.13
2023-04-14T03:22:05.170Z,17.53
2023-04-14T03:24:35.418Z,25.50
2023-04-14T03:27:11.938Z,21.73
2023-04-14T03:29:45.842Z,17.03
2023-04-14T03:32:15.694Z,21.10
2023-04-14T03:34:46.632Z,26.13
2023-04-14T03:37:18.326Z,20.97
2023-04-14T03:39:51.260Z,26.90
2023-04-14T03:42:22.622Z,21.47
2023-04-14T03:44:54.342Z,32.33
2023-04-14T03:47:23.780Z,18.83
2023-04-14T03:49:57.313Z,34.60
2023-04-14T03:52:27.280Z,25.50
2023-04-14T03:54:59.243Z,26.60
2023-04-14T03:57:30.131Z,22.77
2023-04-14T03:59:59.231Z,18.87
2023-04-14T04:02:27.986Z,18.90
2023-04-14T04:04:56.897Z,16.00
2023-04-14T04:07:27.551Z,16.53
2023-04-14T04:09:57.329Z,19.30
2023-04-14T04:12:26.512Z,20.83
2023-04-14T04:14:53.988Z,19.77
2023-04-14T04:17:24.746Z,20.00
2023-04-14T04:19:54.244Z,18.90
2023-04-14T04:22:23.851Z,24.73
2023-04-14T04:24:51.786Z,21.83
2023-04-14T04:27:27.616Z,18.93
2023-04-14T04:29:56.235Z,20.60
2023-04-14T04:32:23.980Z,23.20
2023-04-14T04:34:53.377Z,34.30
2023-04-14T04:37:22.501Z,40.10
2023-04-14T04:39:50.014Z,19.93
2023-04-14T04:42:17.491Z,24.73
2023-04-14T04:44:44.958Z,22.67
2023-04-14T04:47:13.606Z,19.90
2023-04-14T04:49:41.170Z,21.60
2023-04-14T04:52:08.619Z,17.50
2023-04-14T04:54:36.339Z,17.13
2023-04-14T04:57:03.933Z,18.93
2023-04-14T04:59:31.443Z,18.73
2023-04-14T05:01:58.988Z,16.63
2023-04-14T05:04:26.548Z,16.17
2023-04-14T05:06:54.032Z,17.33
2023-04-14T05:09:21.480Z,17.57
2023-04-14T05:11:48.943Z,18.30
2023-04-14T05:14:16.492Z,15.27
2023-04-14T05:16:43.961Z,15.73
2023-04-14T05:19:11.524Z,17.33
2023-04-14T05:21:39.087Z,16.63
2023-04-14T05:24:09.421Z,14.77
2023-04-14T05:26:54.835Z,16.90
2023-04-14T05:29:24.406Z,16.93
2023-04-14T05:31:51.901Z,16.23
2023-04-14T05:34:19.446Z,17.93
2023-04-14T05:36:46.893Z,17.27
2023-04-14T05:39:14.658Z,16.43
2023-04-14T05:41:42.084Z,17.07
2023-04-14T05:44:09.568Z,18.17
2023-04-14T05:46:37.141Z,19.60
2023-04-14T05:49:05.124Z,18.10
2023-04-14T05:51:33.289Z,20.27
2023-04-14T05:54:01.215Z,19.37
2023-04-14T05:56:28.982Z,19.03
2023-04-14T05:58:56.475Z,22.43
2023-04-14T06:01:23.920Z,23.40
2023-04-14T06:03:51.587Z,25.87
2023-04-14T06:06:20.465Z,24.40
2023-04-14T06:08:48.000Z,27.03
2023-04-14T06:11:15.753Z,24.20
2023-04-14T06:13:43.187Z,22.30
2023-04-14T06:16:10.753Z,23.97
2023-04-14T06:18:38.222Z,22.60
2023-04-14T06:21:05.775Z,22.50
2023-04-14T06:23:33.444Z,24.53
2023-04-14T06:26:01.010Z,23.90
2023-04-14T06:28:28.486Z,23.40
2023-04-14T06:30:56.191Z,23.57
2023-04-14T06:33:24.188Z,22.77
2023-04-14T06:35:51.701Z,22.80
2023-04-14T06:38:19.859Z,24.50
2023-04-14T06:40:47.343Z,23.37
2023-04-14T06:43:15.229Z,25.03
2023-04-14T06:45:42.770Z,21.87
2023-04-14T06:48:11.691Z,23.47
2023-04-14T06:50:39.391Z,21.73
2023-04-14T06:53:07.438Z,21.10
2023-04-14T06:55:36.528Z,20.30
2023-04-14T06:58:04.102Z,24.87
2023-04-14T07:00:31.895Z,23.93
2023-04-14T07:02:59.534Z,25.20
2023-04-14T07:05:27.395Z,30.90
2023-04-14T07:07:54.844Z,29.07
2023-04-14T07:10:22.409Z,30.70
2023-04-14T07:12:49.876Z,31.97
2023-04-14T07:15:17.529Z,31.90
2023-04-14T07:17:45.070Z,31.83
2023-04-14T07:20:12.850Z,34.03
2023-04-14T07:22:41.034Z,36.17
2023-04-14T07:25:09.104Z,35.60
2023-04-14T07:27:36.692Z,36.33
2023-04-14T07:30:05.304Z,36.90
2023-04-14T07:32:33.293Z,38.37
2023-04-14T07:35:01.129Z,34.43
2023-04-14T07:37:29.497Z,33.80
2023-04-14T07:39:57.347Z,37.33
2023-04-14T07:42:24.971Z,35.80
2023-04-14T07:44:52.519Z,36.07
2023-04-14T07:47:20.023Z,32.23
2023-04-14T07:49:47.886Z,33.93
2023-04-14T07:52:15.692Z,33.80
2023-04-14T07:54:43.120Z,35.50
2023-04-14T07:57:11.053Z,33.70
2023-04-14T07:59:42.890Z,33.37
2023-04-14T08:02:11.006Z,35.33
2023-04-14T08:04:38.619Z,32.93
2023-04-14T08:07:06.189Z,36.37
2023-04-14T08:09:35.085Z,36.93
2023-04-14T08:12:03.058Z,33.40
2023-04-14T08:14:30.823Z,34.77
2023-04-14T08:16:58.437Z,33.50
2023-04-14T08:19:25.989Z,37.37
2023-04-14T08:21:53.502Z,35.20
2023-04-14T08:24:21.225Z,36.57
2023-04-14T08:26:48.706Z,39.43
2023-04-14T08:29:16.332Z,34.57
2023-04-14T08:31:44.073Z,38.57
2023-04-14T08:34:11.703Z,38.27
2023-04-14T08:36:40.068Z,40.57
2023-04-14T08:39:07.646Z,41.93
2023-04-14T08:41:35.676Z,37.70
2023-04-14T08:44:03.402Z,40.40
2023-04-14T08:46:32.145Z,39.90
2023-04-14T08:49:06.933Z,38.70
2023-04-14T08:51:44.752Z,38.03
2023-04-14T08:54:13.289Z,38.17
2023-04-14T08:56:42.830Z,39.67
2023-04-14T08:59:11.938Z,36.10
2023-04-14T09:01:40.383Z,36.07
2023-04-14T09:04:09.324Z,40.33
2023-04-14T09:06:37.518Z,39.17
2023-04-14T09:09:09.565Z,39.73
2023-04-14T09:11:37.973Z,45.43
2023-04-14T09:14:06.373Z,44.03
2023-04-14T09:16:34.111Z,39.37
2023-04-14T09:19:06.887Z,42.20
2023-04-14T09:21:53.908Z,40.63
2023-04-14T09:24:32.457Z,39.87
2023-04-14T09:27:05.593Z,38.00
2023-04-14T09:29:33.821Z,41.57
2023-04-14T09:32:01.475Z,38.93
2023-04-14T09:34:29.271Z,38.87
2023-04-14T09:37:04.981Z,37.87
2023-04-14T09:39:34.301Z,40.00
2023-04-14T09:42:03.920Z,41.20
2023-04-14T09:44:31.666Z,43.57
2023-04-14T09:47:05.866Z,37.50
2023-04-14T09:49:34.760Z,38.40
2023-04-14T09:52:09.702Z,36.37
2023-04-14T09:54:40.389Z,36.33
2023-04-14T09:57:08.742Z,36.90
2023-04-14T09:59:40.588Z,38.53
2023-04-14T10:02:10.532Z,35.13
2023-04-14T10:04:38.630Z,38.10
2023-04-14T10:07:12.410Z,35.97
2023-04-14T10:09:41.002Z,36.57
2023-04-14T10:12:14.736Z,38.93
2023-04-14T10:14:44.084Z,33.70
2023-04-14T10:17:12.024Z,44.37
2023-04-14T10:19:39.984Z,44.53
2023-04-14T10:22:10.600Z,35.10
2023-04-14T10:24:38.299Z,35.33
2023-04-14T10:27:06.742Z,35.93
2023-04-14T10:29:34.316Z,35.60
2023-04-14T10:32:13.957Z,42.07
2023-04-14T10:35:06.628Z,37.23
2023-04-14T10:37:35.293Z,40.50
2023-04-14T10:40:07.386Z,36.20
2023-04-14T10:43:12.692Z,49.37
2023-04-14T10:45:59.525Z,40.07
2023-04-14T10:48:39.073Z,40.97
2023-04-14T10:51:09.962Z,38.03
2023-04-14T10:53:45.361Z,38.07
2023-04-14T10:56:13.746Z,40.47
2023-04-14T10:58:41.236Z,36.73
2023-04-14T11:01:32.584Z,37.63
2023-04-14T11:04:21.419Z,36.10
2023-04-14T11:06:53.654Z,36.00
2023-04-14T11:09:25.581Z,33.70
2023-04-14T11:47:06.684Z,46.87
2023-04-14T11:49:37.880Z,35.43
2023-04-14T11:52:08.938Z,36.03
2023-04-14T11:54:45.950Z,32.23
2023-04-14T11:58:11.156Z,32.33
2023-04-14T12:15:59.590Z,33.57
2023-04-14T12:18:29.026Z,34.20
2023-04-14T12:21:39.726Z,32.90
2023-04-14T12:24:07.298Z,32.60
2023-04-14T12:26:37.412Z,32.07
2023-04-14T12:29:05.192Z,28.83
2023-04-14T12:31:32.857Z,28.07
2023-04-14T12:34:02.213Z,30.50
2023-04-14T12:36:45.432Z,26.77
2023-04-14T12:39:16.988Z,27.30
2023-04-14T12:41:45.121Z,29.77
2023-04-14T12:44:17.470Z,30.43
2023-04-14T12:46:51.891Z,25.97
2023-04-14T12:49:38.915Z,26.47
2023-04-14T12:52:08.517Z,26.53
2023-04-14T12:54:52.536Z,25.73
2023-04-14T12:57:22.387Z,28.10
2023-04-14T12:59:50.640Z,26.97
2023-04-14T13:02:18.860Z,29.00
2023-04-14T13:04:46.580Z,27.80
2023-04-14T13:07:14.080Z,25.73
2023-04-14T13:09:43.792Z,26.90
2023-04-14T13:12:11.841Z,24.80
2023-04-14T13:14:39.587Z,27.63
2023-04-14T13:17:07.274Z,25.33
2023-04-14T13:19:34.908Z,27.00
2023-04-14T13:22:02.442Z,25.50
2023-04-14T13:24:30.047Z,30.10
2023-04-14T13:26:57.722Z,32.87
2023-04-14T13:29:25.152Z,28.87
2023-04-14T13:31:52.659Z,34.63
2023-04-14T13:34:20.212Z,31.00
2023-04-14T13:36:48.550Z,32.90
2023-04-14T13:39:16.126Z,29.80
2023-04-14T13:41:43.997Z,33.60
2023-04-14T13:44:11.668Z,29.63
2023-04-14T13:46:41.394Z,30.43
2023-04-14T13:49:09.206Z,33.93
2023-04-14T13:51:36.716Z,32.90
2023-04-14T13:54:04.392Z,32.53
2023-04-14T13:56:31.968Z,33.20
2023-04-14T13:58:59.654Z,35.53
2023-04-14T14:01:27.763Z,34.70
2023-04-14T14:03:55.784Z,30.87
2023-04-14T14:06:23.431Z,34.73
2023-04-14T14:09:07.754Z,34.63
2023-04-14T14:11:35.856Z,31.63
2023-04-14T14:14:03.832Z,31.37
2023-04-14T14:19:05.442Z,31.83
2023-04-14T14:21:33.020Z,36.43
2023-04-14T14:24:01.370Z,31.40
2023-04-14T14:26:29.015Z,34.50
2023-04-14T14:28:56.722Z,36.27
2023-04-14T14:31:24.259Z,34.20
2023-04-14T14:33:51.736Z,33.77
2023-04-14T14:36:19.296Z,34.13
2023-04-14T14:38:46.732Z,32.97
2023-04-14T14:41:14.214Z,35.50
2023-04-14T14:43:41.778Z,33.73
2023-04-14T14:46:09.224Z,33.30
2023-04-14T14:48:36.966Z,42.53
2023-04-14T14:51:04.930Z,34.80
2023-04-14T14:53:32.600Z,34.87
2023-04-14T14:56:00.639Z,37.27
2023-04-14T14:58:28.230Z,37.97
2023-04-14T15:00:55.721Z,33.33
2023-04-14T15:03:23.537Z,35.43
2023-04-14T15:05:52.673Z,35.83
2023-04-14T15:08:20.771Z,35.13
2023-04-14T15:10:48.254Z,36.43
2023-04-14T15:13:15.797Z,37.40
2023-04-14T15:15:43.340Z,41.17
2023-04-14T15:18:11.519Z,43.73
2023-04-14T15:20:39.545Z,38.87
2023-04-14T15:23:07.382Z,30.60
2023-04-14T15:25:34.843Z,34.13
2023-04-14T15:28:02.316Z,35.83
2023-04-14T15:30:29.922Z,34.17
2023-04-14T15:32:58.625Z,37.10
2023-04-14T15:35:26.738Z,35.33
2023-04-14T15:37:54.194Z,36.97
2023-04-14T15:40:21.866Z,34.30
2023-04-14T15:42:49.341Z,37.30
2023-04-14T15:45:16.979Z,36.43
2023-04-14T15:47:46.262Z,37.13
2023-04-14T15:50:18.516Z,39.03
2023-04-14T15:52:46.546Z,39.30
2023-04-14T15:55:14.002Z,39.40
2023-04-14T15:57:41.521Z,33.70
2023-04-14T16:00:09.935Z,31.43
2023-04-14T16:02:38.131Z,31.43
2023-04-14T16:05:06.445Z,35.30
2023-04-14T16:07:34.000Z,34.23
2023-04-14T16:10:01.861Z,33.30
2023-04-14T16:12:30.384Z,34.00
2023-04-14T16:14:57.907Z,36.17
2023-04-14T16:17:25.739Z,38.03
2023-04-14T16:19:53.291Z,35.80
2023-04-14T16:22:20.763Z,40.47
2023-04-14T16:24:48.282Z,41.00
2023-04-14T16:27:16.359Z,35.83
2023-04-14T16:29:43.896Z,34.13
2023-04-14T16:32:11.494Z,32.00
2023-04-14T16:34:39.305Z,33.50
2023-04-14T16:37:06.763Z,34.30
2023-04-14T16:39:34.347Z,38.70
2023-04-14T16:42:03.281Z,35.97
2023-04-14T16:44:30.852Z,36.30
2023-04-14T16:46:58.470Z,34.43
2023-04-14T16:49:26.343Z,36.47
2023-04-14T16:51:57.330Z,33.83
2023-04-14T16:54:24.830Z,35.53
2023-04-14T16:56:53.161Z,32.53
2023-04-14T16:59:20.606Z,37.23
2023-04-14T17:01:48.296Z,36.57
2023-04-14T17:04:16.280Z,36.40
2023-04-14T17:06:43.990Z,37.23
2023-04-14T17:09:12.185Z,42.60
2023-04-14T17:11:39.649Z,42.10
2023-04-14T17:14:08.303Z,41.93
2023-04-14T17:16:36.452Z,43.53
2023-04-14T17:19:04.595Z,46.33
2023-04-14T17:21:32.062Z,45.20
2023-04-14T17:23:59.594Z,42.27
2023-04-14T17:26:27.276Z,44.27
2023-04-14T17:28:54.708Z,41.50
2023-04-14T17:31:23.011Z,42.83
2023-04-14T17:33:51.259Z,41.23
2023-04-14T17:36:18.781Z,42.97
2023-04-14T17:38:46.312Z,42.47
2023-04-14T17:41:14.159Z,40.67
2023-04-14T17:43:41.988Z,45.10
2023-04-14T17:46:09.564Z,43.13
2023-04-14T17:48:37.111Z,45.37
2023-04-14T17:51:05.387Z,44.37
2023-04-14T17:53:32.984Z,42.53
2023-04-14T17:56:00.779Z,46.50
2023-04-14T17:58:28.944Z,41.93
2023-04-14T18:00:57.561Z,44.60
2023-04-14T18:03:25.279Z,39.37
2023-04-14T18:05:54.470Z,46.83
2023-04-14T18:08:22.130Z,43.60
2023-04-14T18:10:49.561Z,41.40
2023-04-14T18:13:18.141Z,45.43
2023-04-14T18:15:45.856Z,43.93
2023-04-14T18:18:13.341Z,45.67
2023-04-14T18:20:45.783Z,44.80
2023-04-14T18:23:13.954Z,44.90
2023-04-14T18:28:12.370Z,49.77
2023-04-14T18:30:39.838Z,51.97
2023-04-14T18:33:07.597Z,50.03
2023-04-14T18:35:35.502Z,48.70
2023-04-14T18:38:03.003Z,45.57
2023-04-14T18:40:30.585Z,46.13
2023-04-14T18:42:58.100Z,44.77
2023-04-14T18:45:25.613Z,46.37
2023-04-14T18:47:53.180Z,43.43
2023-04-14T18:50:21.688Z,46.67
2023-04-14T18:52:49.517Z,42.87
2023-04-14T18:55:17.176Z,43.60
2023-04-14T18:57:46.162Z,45.50
2023-04-14T19:00:14.080Z,40.17
2023-04-14T19:02:42.906Z,45.20
2023-04-14T19:05:12.141Z,42.27
2023-04-14T19:07:39.624Z,46.77
2023-04-14T19:10:08.092Z,48.47
2023-04-14T19:12:37.960Z,54.13
2023-04-14T19:15:06.791Z,55.07
2023-04-14T19:17:34.674Z,55.53
2023-04-14T19:20:02.287Z,56.40
2023-04-14T19:22:29.759Z,58.13
2023-04-14T19:24:57.308Z,58.70
2023-04-14T19:27:24.975Z,58.43
2023-04-14T19:29:52.651Z,55.00
2023-04-14T19:32:20.170Z,62.47
2023-04-14T19:34:47.716Z,54.83
2023-04-14T19:37:15.258Z,54.03
2023-04-14T19:39:42.711Z,54.93
2023-04-14T19:42:10.153Z,54.10
2023-04-14T19:44:37.695Z,57.47
2023-04-14T19:47:05.254Z,56.77
2023-04-14T19:49:32.703Z,52.63
2023-04-14T19:52:00.200Z,54.37
2023-04-14T19:54:28.127Z,54.87
2023-04-14T19:56:55.995Z,56.57
2023-04-14T19:59:23.505Z,54.77
2023-04-14T20:01:51.827Z,51.30
2023-04-14T20:04:19.491Z,52.70
2023-04-14T20:06:46.963Z,50.53
2023-04-14T20:09:14.603Z,49.50
2023-04-14T20:11:42.105Z,48.60
2023-04-14T20:14:09.538Z,54.13
2023-04-14T20:16:37.111Z,53.23
2023-04-14T20:19:05.017Z,54.70
2023-04-14T20:21:32.997Z,64.23
2023-04-14T20:24:01.242Z,50.97
2023-04-14T20:26:28.823Z,48.73
2023-04-14T20:28:56.300Z,49.43
2023-04-14T20:31:24.797Z,50.07
2023-04-14T20:33:52.594Z,50.50
2023-04-14T20:36:22.507Z,45.80
2023-04-14T20:38:50.098Z,49.00
2023-04-14T20:41:18.288Z,48.40
2023-04-14T20:43:45.953Z,52.77
2023-04-14T20:46:13.551Z,53.27
2023-04-14T20:48:42.318Z,52.40
2023-04-14T20:51:10.626Z,48.40
2023-04-14T20:53:38.300Z,48.90
2023-04-14T20:56:06.547Z,45.33
2023-04-14T20:58:34.079Z,47.90
2023-04-14T21:01:02.948Z,51.47
2023-04-14T21:03:33.519Z,54.33
2023-04-14T21:06:02.050Z,54.47
2023-04-14T21:08:29.978Z,57.07
2023-04-14T21:11:15.216Z,56.57
2023-04-14T21:15:31.396Z,57.73
2023-04-14T21:16:35.071Z,58.10
2023-04-14T21:19:03.901Z,58.27
2023-04-14T21:21:33.352Z,57.30
2023-04-14T21:24:01.788Z,61.20
2023-04-14T21:26:29.590Z,62.23
2023-04-14T21:28:57.182Z,64.30
2023-04-14T21:31:24.930Z,62.30
2023-04-14T21:33:52.810Z,61.50
2023-04-14T21:36:20.697Z,59.97
2023-04-14T21:38:48.949Z,59.57
2023-04-14T21:41:16.591Z,62.10
2023-04-14T21:43:44.179Z,56.73
2023-04-14T21:46:12.467Z,58.47
2023-04-14T21:48:40.348Z,53.23
2023-04-14T21:51:07.880Z,50.93
2023-04-14T21:53:36.728Z,50.60
2023-04-14T21:56:09.807Z,48.43
2023-04-14T21:58:39.761Z,49.70
2023-04-14T22:01:08.176Z,52.83
2023-04-14T22:03:37.800Z,54.70
2023-04-14T22:06:05.890Z,49.90
2023-04-14T22:08:33.487Z,49.33
2023-04-14T22:11:01.014Z,52.67
2023-04-14T22:13:28.783Z,45.80
2023-04-14T22:15:56.792Z,48.73
2023-04-14T22:18:24.621Z,47.53
2023-04-14T22:20:52.219Z,47.13
2023-04-14T22:23:19.780Z,54.43
2023-04-14T22:25:48.079Z,49.97
2023-04-14T22:28:15.628Z,46.47
2023-04-14T22:30:43.364Z,46.73
2023-04-14T22:33:11.121Z,48.27
2023-04-14T22:35:39.109Z,50.20
2023-04-14T22:38:07.179Z,53.07
2023-04-14T22:40:34.753Z,55.80
2023-04-14T22:43:08.730Z,54.07
2023-04-14T22:45:41.599Z,55.37
2023-04-14T22:48:11.286Z,50.47
2023-04-14T22:50:39.557Z,42.50
2023-04-14T22:53:07.130Z,38.63
2023-04-14T22:55:34.618Z,37.73
2023-04-14T22:58:02.728Z,30.13
2023-04-14T23:00:30.350Z,19.00
2023-04-14T23:02:59.553Z,13.87
2023-04-14T23:05:27.316Z,14.70
2023-04-14T23:07:54.823Z,11.23
2023-04-14T23:10:22.403Z,10.60
2023-04-14T23:12:49.830Z,8.67
2023-04-14T23:15:18.958Z,10.93
2023-04-14T23:17:46.477Z,8.87
2023-04-14T23:20:14.097Z,8.03
2023-04-14T23:22:41.585Z,10.93
2023-04-14T23:25:09.526Z,10.10
2023-04-14T23:27:37.013Z,8.77
2023-04-14T23:30:05.646Z,9.03
2023-04-14T23:32:33.422Z,9.63
2023-04-14T23:35:01.019Z,8.73
2023-04-14T23:37:28.912Z,9.27
2023-04-14T23:39:56.347Z,9.30
2023-04-14T23:42:23.866Z,12.80
2023-04-14T23:44:51.554Z,12.40
2023-04-14T23:47:19.343Z,11.13
2023-04-14T23:49:46.897Z,9.87
2023-04-14T23:52:14.364Z,11.13
2023-04-14T23:54:41.974Z,9.93
2023-04-14T23:57:09.863Z,10.47
2023-04-14T23:59:37.430Z,9.20
